createdAt,value
2018-12-02T00:02:38.822Z,12.10
2018-12-02T00:07:32.200Z,11.38
2018-12-02T00:12:25.405Z,11.33
2018-12-02T00:17:18.593Z,10.40
2018-12-02T00:22:12.381Z,10.85
2018-12-02T00:27:05.661Z,12.23
2018-12-02T00:31:58.961Z,11.48
2018-12-02T00:36:53.220Z,10.38
2018-12-02T00:41:46.445Z,11.55
2018-12-02T00:46:39.767Z,10.05
2018-12-02T00:51:32.956Z,9.00
2018-12-02T00:56:24.966Z,9.90
2018-12-02T01:01:18.138Z,13.03
2018-12-02T01:06:11.503Z,14.87
2018-12-02T01:11:05.296Z,15.18
2018-12-02T01:15:58.516Z,18.90
2018-12-02T01:20:51.863Z,17.20
2018-12-02T01:25:45.237Z,23.95
2018-12-02T01:30:38.420Z,22.13
2018-12-02T01:35:31.623Z,11.60
2018-12-02T01:40:24.848Z,22.80
2018-12-02T01:45:22.703Z,24.82
2018-12-02T01:50:17.050Z,20.48
2018-12-02T01:55:10.719Z,14.15
2018-12-02T02:00:09.455Z,22.58
2018-12-02T02:05:03.037Z,17.55
2018-12-02T02:09:56.271Z,18.25
2018-12-02T02:14:49.668Z,16.90
2018-12-02T02:19:42.845Z,12.18
2018-12-02T02:24:36.056Z,12.40
2018-12-02T02:29:30.778Z,10.98
2018-12-02T02:34:23.991Z,11.50
2018-12-02T02:39:17.216Z,12.60
2018-12-02T02:44:10.444Z,15.65
2018-12-02T02:49:03.713Z,10.05
2018-12-02T02:53:56.944Z,13.72
2018-12-02T02:58:50.224Z,11.85
2018-12-02T03:03:43.406Z,9.83
2018-12-02T03:08:37.497Z,9.63
2018-12-02T03:13:31.360Z,10.05
2018-12-02T03:18:25.633Z,11.40
2018-12-02T03:23:19.477Z,8.40
2018-12-02T03:28:13.289Z,16.12
2018-12-02T03:33:06.864Z,13.13
2018-12-02T03:38:00.088Z,14.20
2018-12-02T03:42:53.346Z,14.03
2018-12-02T03:47:46.581Z,10.68
2018-12-02T03:52:39.804Z,15.05
2018-12-02T03:57:33.125Z,15.68
2018-12-02T04:02:27.576Z,15.10
2018-12-02T04:07:20.760Z,12.93
2018-12-02T04:12:14.061Z,14.10
2018-12-02T04:17:08.410Z,16.52
2018-12-02T04:22:01.651Z,31.52
2018-12-02T04:26:55.267Z,19.62
2018-12-02T04:31:48.649Z,24.27
2018-12-02T04:36:41.815Z,20.20
2018-12-02T04:41:35.183Z,24.23
2018-12-02T04:46:28.406Z,10.50
2018-12-02T04:51:21.648Z,14.65
2018-12-02T04:56:14.990Z,26.95
2018-12-02T05:01:08.571Z,22.52
2018-12-02T05:06:01.902Z,24.15
2018-12-02T05:10:55.119Z,34.18
2018-12-02T05:15:48.176Z,27.58
2018-12-02T05:20:41.445Z,21.97
2018-12-02T05:25:36.613Z,28.32
2018-12-02T05:30:29.849Z,22.82
2018-12-02T05:35:23.219Z,32.55
2018-12-02T05:40:19.595Z,23.47
2018-12-02T05:45:16.577Z,31.87
2018-12-02T05:50:14.975Z,35.00
2018-12-02T05:55:11.149Z,34.67
2018-12-02T06:00:06.639Z,45.28
2018-12-02T06:05:00.039Z,42.40
2018-12-02T06:09:53.718Z,52.05
2018-12-02T06:14:47.096Z,38.48
2018-12-02T06:19:40.452Z,31.93
2018-12-02T06:24:34.173Z,27.70
2018-12-02T06:29:27.725Z,45.33
2018-12-02T06:34:21.296Z,34.13
2018-12-02T06:39:14.616Z,38.80
2018-12-02T06:44:08.236Z,30.62
2018-12-02T06:49:01.637Z,58.35
2018-12-02T06:53:55.666Z,37.17
2018-12-02T06:59:14.845Z,38.60
2018-12-02T07:04:25.256Z,47.78
2018-12-02T07:09:18.855Z,51.60
2018-12-02T07:14:12.168Z,38.65
2018-12-02T07:19:09.661Z,42.20
2018-12-02T07:24:08.696Z,65.20
2018-12-02T07:29:02.220Z,46.42
2018-12-02T07:33:55.586Z,35.20
2018-12-02T07:39:14.446Z,47.45
2018-12-02T07:44:07.826Z,46.70
2018-12-02T07:49:01.180Z,39.55
2018-12-02T07:53:54.648Z,29.35
2018-12-02T07:58:48.223Z,27.52
2018-12-02T08:03:41.507Z,29.50
2018-12-02T08:08:34.832Z,31.82
2018-12-02T08:13:28.480Z,46.55
2018-12-02T08:18:22.263Z,48.25
2018-12-02T08:23:15.547Z,35.80
2018-12-02T08:28:09.043Z,60.80
2018-12-02T08:33:02.236Z,53.92
2018-12-02T08:37:57.927Z,51.70
2018-12-02T08:42:51.891Z,65.40
2018-12-02T08:47:45.656Z,24.55
2018-12-02T08:52:38.895Z,26.05
2018-12-02T08:57:32.479Z,26.00
2018-12-02T09:02:25.936Z,23.70
2018-12-02T09:07:19.446Z,25.00
2018-12-02T09:12:12.640Z,25.62
2018-12-02T09:17:06.129Z,25.68
2018-12-02T09:21:59.975Z,23.42
2018-12-02T09:26:55.437Z,32.98
2018-12-02T09:31:50.377Z,22.87
2018-12-02T09:36:44.357Z,22.42
2018-12-02T09:41:37.579Z,24.92
2018-12-02T09:46:30.842Z,28.40
2018-12-02T09:51:24.166Z,25.43
2018-12-02T09:56:17.467Z,26.75
2018-12-02T10:01:10.828Z,29.55
2018-12-02T10:06:04.078Z,30.45
2018-12-02T10:10:57.308Z,31.60
2018-12-02T10:15:50.630Z,38.95
2018-12-02T10:20:43.908Z,36.63
2018-12-02T10:25:37.466Z,31.93
2018-12-02T10:30:30.859Z,37.50
2018-12-02T10:35:24.885Z,38.38
2018-12-02T10:40:19.960Z,36.20
2018-12-02T10:45:23.237Z,31.02
2018-12-02T10:50:18.886Z,25.00
2018-12-02T10:55:19.198Z,38.63
2018-12-02T11:00:28.729Z,29.65
2018-12-02T11:05:22.751Z,35.20
2018-12-02T11:10:16.262Z,27.87
2018-12-02T11:15:13.375Z,24.75
2018-12-02T11:20:09.407Z,28.47
2018-12-02T11:25:03.381Z,33.92
2018-12-02T11:30:02.221Z,36.93
2018-12-02T11:34:55.858Z,33.85
2018-12-02T11:45:54.229Z,24.92
2018-12-02T11:50:51.886Z,27.82
2018-12-02T11:55:45.572Z,31.60
2018-12-02T12:00:40.110Z,25.75
2018-12-02T12:05:33.604Z,27.60
2018-12-02T12:10:28.476Z,37.70
2018-12-02T12:20:34.617Z,30.48
2018-12-02T12:25:38.065Z,24.18
2018-12-02T12:30:41.572Z,27.40
2018-12-02T12:35:47.530Z,27.13
2018-12-02T12:46:36.065Z,29.57
2018-12-02T12:51:39.892Z,38.55
2018-12-02T12:56:43.196Z,25.25
2018-12-02T13:01:46.496Z,48.78
2018-12-02T13:06:49.877Z,34.60
2018-12-02T13:11:53.159Z,41.18
2018-12-02T13:16:56.701Z,44.95
2018-12-02T13:22:00.045Z,46.05
2018-12-02T13:27:03.377Z,33.28
2018-12-02T13:32:07.121Z,44.83
2018-12-02T13:37:10.643Z,44.18
2018-12-02T13:42:13.820Z,48.75
2018-12-02T13:47:17.459Z,48.80
2018-12-02T13:52:20.677Z,59.08
2018-12-02T13:57:24.085Z,69.53
2018-12-02T14:02:27.507Z,59.15
2018-12-02T14:07:30.985Z,79.70
2018-12-02T14:12:34.208Z,147.07
2018-12-02T14:17:37.725Z,154.70
2018-12-02T14:22:41.067Z,79.97
2018-12-02T14:27:46.002Z,53.48
2018-12-02T14:32:49.550Z,84.37
2018-12-02T14:37:52.834Z,154.72
2018-12-02T14:42:56.010Z,187.55
2018-12-02T14:47:59.311Z,150.42
2018-12-02T14:53:02.596Z,105.87
2018-12-02T14:58:06.139Z,117.65
2018-12-02T15:03:09.417Z,122.13
2018-12-02T15:08:12.807Z,126.80
2018-12-02T15:13:16.318Z,111.30
2018-12-02T15:18:19.587Z,110.05
2018-12-02T15:23:22.863Z,69.05
2018-12-02T15:28:26.194Z,111.95
2018-12-02T15:33:29.509Z,123.95
2018-12-02T15:38:32.797Z,131.90
2018-12-02T15:43:36.349Z,77.55
2018-12-02T15:48:40.684Z,55.10
2018-12-02T15:53:43.980Z,58.35
2018-12-02T15:58:47.976Z,56.08
2018-12-02T16:03:51.465Z,45.38
2018-12-02T16:08:54.829Z,46.35
2018-12-02T16:13:58.199Z,43.40
2018-12-02T16:19:01.414Z,65.40
2018-12-02T16:24:04.785Z,104.85
2018-12-02T16:29:08.047Z,36.65
2018-12-02T16:34:11.357Z,131.10
2018-12-02T16:39:14.518Z,126.53
2018-12-02T16:44:17.705Z,119.82
2018-12-02T16:49:20.936Z,109.60
2018-12-02T16:54:24.139Z,168.05
2018-12-02T16:59:29.731Z,109.10
2018-12-02T17:04:33.127Z,76.17
2018-12-02T17:09:36.305Z,77.67
2018-12-02T17:14:39.474Z,113.08
2018-12-02T17:19:42.620Z,159.70
2018-12-02T17:24:45.797Z,105.63
2018-12-02T17:29:50.343Z,96.63
2018-12-02T17:34:53.761Z,69.32
2018-12-02T17:39:56.949Z,42.70
2018-12-02T17:45:00.225Z,73.30
2018-12-02T17:50:04.208Z,34.60
2018-12-02T17:55:07.916Z,87.72
2018-12-02T18:00:16.736Z,54.03
2018-12-02T18:05:25.851Z,38.15
2018-12-02T18:10:29.093Z,41.63
2018-12-02T18:15:32.461Z,59.10
2018-12-02T18:20:35.882Z,63.38
2018-12-02T18:25:39.127Z,91.17
2018-12-02T18:30:42.460Z,64.15
2018-12-02T18:35:51.481Z,59.20
2018-12-02T18:40:58.413Z,51.15
2018-12-02T18:46:02.778Z,53.92
2018-12-02T18:51:06.609Z,47.20
2018-12-02T18:56:09.808Z,47.17
2018-12-02T19:01:14.059Z,70.20
2018-12-02T19:06:17.362Z,68.25
2018-12-02T19:11:21.565Z,66.65
2018-12-02T19:16:24.159Z,64.45
2018-12-02T19:21:28.730Z,44.53
2018-12-02T19:26:31.959Z,64.00
2018-12-02T19:31:35.330Z,87.47
2018-12-02T19:36:42.914Z,75.83
2018-12-02T19:41:46.085Z,52.33
2018-12-02T19:46:49.426Z,47.30
2018-12-02T19:51:52.911Z,66.17
2018-12-02T19:56:56.212Z,55.48
2018-12-02T20:01:59.498Z,32.35
2018-12-02T20:07:03.038Z,78.62
2018-12-02T20:12:06.227Z,42.35
2018-12-02T20:17:09.389Z,20.32
2018-12-02T20:22:12.617Z,29.07
2018-12-02T20:27:15.888Z,42.00
2018-12-02T20:32:19.202Z,68.35
2018-12-02T20:37:22.618Z,47.03
2018-12-02T20:42:25.786Z,32.50
2018-12-02T20:47:29.098Z,32.23
2018-12-02T20:52:32.208Z,30.65
2018-12-02T20:57:35.361Z,66.47
2018-12-02T21:02:38.516Z,49.13
2018-12-02T21:07:41.970Z,67.45
2018-12-02T21:12:45.219Z,30.08
2018-12-02T21:17:48.354Z,28.92
2018-12-02T21:22:51.502Z,34.45
2018-12-02T21:27:54.785Z,26.40
2018-12-02T21:32:57.895Z,38.70
2018-12-02T21:38:01.419Z,39.23
2018-12-02T21:43:11.067Z,26.55
2018-12-02T21:48:17.105Z,29.70
2018-12-02T21:53:20.327Z,18.73
2018-12-02T21:58:23.577Z,20.37
2018-12-02T22:03:26.738Z,17.40
2018-12-02T22:08:30.615Z,17.32
2018-12-02T22:13:34.033Z,16.02
2018-12-02T22:18:37.205Z,18.17
2018-12-02T22:23:40.416Z,20.95
2018-12-02T22:28:43.608Z,67.90
2018-12-02T22:33:46.957Z,31.42
2018-12-02T22:38:50.186Z,22.25
2018-12-02T22:43:53.414Z,48.80
2018-12-02T22:48:56.601Z,29.18
2018-12-02T22:53:59.720Z,20.27
2018-12-02T22:59:03.016Z,21.27
2018-12-02T23:04:07.124Z,24.05
2018-12-02T23:09:10.527Z,32.13
2018-12-02T23:14:13.768Z,17.70
2018-12-02T23:19:17.203Z,26.48
2018-12-02T23:24:20.340Z,23.40
2018-12-02T23:29:23.564Z,30.20
2018-12-02T23:34:26.880Z,31.62
2018-12-02T23:39:30.153Z,23.35
2018-12-02T23:44:33.553Z,19.50
2018-12-02T23:49:36.835Z,20.02
2018-12-02T23:54:40.135Z,15.93
2018-12-02T23:59:43.491Z,22.82
